Stites, Idaho
Current Conditions -  °F | °C
As of 5:15 PM on Thursday 27 Nov 2014 (Local Time) from KGIC Reporting Station
Overcast Overcast  
Wind Chill: 50°   Ceiling: 5500
Heat Index: 50°   Visibility: 10mi
Dew Point: 37°   Wind: 17mph
Humidity: 60%   Direction: 200°SSW
Pressure: 29.95"   Gusts: 29mph
Location:  46.09°N, 115.98°W
Report Text: KGIC 280115Z AUTO 20015G25KT 10SM SCT049 OVC055 10/03 A2995 RMK AO1 T01020027
Loading
Personal Weather Stations






























Interactive Weather Map New forecast layout! Learn more

10-Day Weather Forecast

Advertisements
Track Severe Weather on mobile